Time;durP1;ratioP1;P1;durP2;ratioP2;P2;SDS_P1;SDS_P2;PMS_P1;PMS_P2;Temp;Humidity;BMP_temperature;BMP_pressure;BME280_temperature;BME280_humidity;BME280_pressure;Samples;Min_cycle;Max_cycle;Signal;HPM_P1;HPM_P2
2022/09/07 00:01:40;;;;;;;25.33;12.70;;;16.40;99.90;;;;;;4995064;28;20394;-87
2022/09/07 00:04:06;;;;;;;20.15;11.20;;;16.50;99.90;;;;;;4999590;28;20037;-87
2022/09/07 00:06:33;;;;;;;21.25;11.20;;;16.40;99.90;;;;;;4994723;28;20038;-87
2022/09/07 00:09:00;;;;;;;16.10;11.10;;;16.40;99.90;;;;;;4994365;28;20096;-87
2022/09/07 00:11:27;;;;;;;16.33;11.05;;;16.30;99.90;;;;;;4994835;28;20031;-86
2022/09/07 00:17:19;;;;;;;17.63;10.75;;;16.30;99.90;;;;;;4995621;28;20044;-86
2022/09/07 00:19:45;;;;;;;19.60;10.60;;;16.30;99.90;;;;;;4994633;28;20030;-87
2022/09/07 00:22:10;;;;;;;20.20;10.05;;;16.30;99.90;;;;;;5003516;28;20096;-87
2022/09/07 00:24:36;;;;;;;18.02;10.90;;;16.30;99.90;;;;;;4994534;28;20035;-87
2022/09/07 00:27:02;;;;;;;14.10;11.15;;;16.30;99.90;;;;;;5000789;28;20037;-87
2022/09/07 00:29:28;;;;;;;17.10;10.07;;;16.40;99.90;;;;;;4994313;28;20474;-87
2022/09/07 00:31:53;;;;;;;16.30;8.98;;;16.40;99.90;;;;;;4995495;28;20042;-87
2022/09/07 00:34:19;;;;;;;16.73;9.45;;;16.40;99.90;;;;;;4986003;28;20041;-86
2022/09/07 00:36:45;;;;;;;17.98;9.90;;;16.40;99.90;;;;;;4994424;28;20113;-87
2022/09/07 00:39:11;;;;;;;17.38;10.05;;;16.50;99.90;;;;;;4994038;28;20030;-87
2022/09/07 00:41:36;;;;;;;17.42;9.90;;;16.40;99.90;;;;;;4994165;28;20121;-87
2022/09/07 00:44:40;;;;;;;17.52;10.52;;;16.50;99.90;;;;;;4994054;28;20081;-87
2022/09/07 00:47:17;;;;;;;14.32;9.40;;;16.40;99.90;;;;;;4978864;28;20027;-87
2022/09/07 00:49:48;;;;;;;12.93;8.73;;;16.40;99.90;;;;;;4993959;28;20022;-87
2022/09/07 00:52:15;;;;;;;14.90;8.90;;;16.40;99.90;;;;;;4976134;28;20034;-86
2022/09/07 00:54:49;;;;;;;16.65;9.48;;;16.30;99.90;;;;;;4993834;28;20034;-87
2022/09/07 00:57:16;;;;;;;14.48;8.82;;;16.40;99.90;;;;;;4993937;28;20037;-87
2022/09/07 00:59:58;;;;;;;14.82;9.25;;;16.30;99.90;;;;;;4993735;28;20045;-87
2022/09/07 01:02:24;;;;;;;19.38;9.23;;;16.30;99.90;;;;;;5009858;28;20043;-87
2022/09/07 01:04:55;;;;;;;15.90;9.88;;;16.20;99.90;;;;;;4994186;28;20018;-87
2022/09/07 01:07:22;;;;;;;21.88;10.75;;;16.10;99.90;;;;;;4993735;28;20030;-86
2022/09/07 01:09:49;;;;;;;22.02;11.75;;;16.00;99.90;;;;;;4993442;28;20038;-87
2022/09/07 01:12:15;;;;;;;18.42;11.52;;;16.00;99.90;;;;;;4977841;28;20037;-87
2022/09/07 01:14:45;;;;;;;22.20;11.88;;;15.90;99.90;;;;;;4987574;28;20034;-86
2022/09/07 01:17:20;;;;;;;17.93;12.37;;;15.80;99.90;;;;;;4980655;28;20038;-87
2022/09/07 01:20:22;;;;;;;21.52;12.55;;;15.70;99.90;;;;;;4989092;28;20093;-86
2022/09/07 01:23:09;;;;;;;18.85;12.38;;;15.60;99.90;;;;;;4992818;28;20030;-86
2022/09/07 01:25:54;;;;;;;18.25;12.15;;;15.40;99.90;;;;;;4991474;28;20041;-87
2022/09/07 01:28:23;;;;;;;23.45;11.57;;;15.40;99.90;;;;;;4992832;28;20072;-86
2022/09/07 01:31:16;;;;;;;22.02;12.77;;;15.40;99.90;;;;;;4991101;28;20485;-86
2022/09/07 01:33:54;;;;;;;24.00;11.93;;;15.50;99.90;;;;;;4991979;28;20066;-87
2022/09/07 01:36:36;;;;;;;15.32;11.45;;;15.60;99.90;;;;;;4993194;28;20061;-87
2022/09/07 01:39:04;;;;;;;25.13;12.27;;;15.60;99.90;;;;;;4994341;28;20497;-87
2022/09/07 01:41:39;;;;;;;25.40;12.02;;;15.60;99.90;;;;;;4993042;28;20038;-87
2022/09/07 01:44:39;;;;;;;20.63;12.50;;;15.70;99.90;;;;;;4992655;28;20022;-87
2022/09/07 01:47:28;;;;;;;16.50;10.15;;;15.70;99.90;;;;;;4983297;28;20034;-86
2022/09/07 01:50:17;;;;;;;21.17;13.93;;;15.70;99.90;;;;;;4952226;28;20593;-87
2022/09/07 01:52:57;;;;;;;16.63;11.50;;;15.70;99.90;;;;;;4992577;28;20038;-86
2022/09/07 01:55:34;;;;;;;18.10;10.73;;;15.70;99.90;;;;;;4991479;28;20034;-86
2022/09/07 01:58:16;;;;;;;16.73;9.98;;;15.60;99.90;;;;;;4991970;28;20034;-86
2022/09/07 02:00:47;;;;;;;14.40;10.60;;;15.50;99.90;;;;;;4992426;28;20486;-86
2022/09/07 02:03:18;;;;;;;18.95;10.70;;;15.50;99.90;;;;;;5001803;28;20441;-87
2022/09/07 02:05:51;;;;;;;19.65;11.48;;;15.50;99.90;;;;;;4992190;28;20108;-86
2022/09/07 02:08:33;;;;;;;19.90;10.93;;;15.50;99.90;;;;;;4984408;28;20486;-86
2022/09/07 02:11:07;;;;;;;15.43;10.35;;;15.60;99.90;;;;;;4992165;28;20088;-87
2022/09/07 02:13:53;;;;;;;18.27;12.20;;;15.60;99.90;;;;;;4991698;28;20125;-87
2022/09/07 02:16:24;;;;;;;19.48;11.75;;;15.70;99.90;;;;;;4989399;28;20037;-86
2022/09/07 02:18:55;;;;;;;14.38;7.60;;;15.80;99.90;;;;;;4989297;28;20441;-86
2022/09/07 02:21:27;;;;;;;15.43;6.22;;;15.80;99.90;;;;;;4992137;28;20490;-86
2022/09/07 02:24:10;;;;;;;14.60;5.90;;;16.10;99.90;;;;;;4991995;28;20518;-86
2022/09/07 02:26:38;;;;;;;13.10;5.53;;;16.30;99.90;;;;;;4972631;28;20038;-86
2022/09/07 02:29:45;;;;;;;10.80;5.50;;;16.50;99.90;;;;;;4992071;28;20494;-86
2022/09/07 02:32:11;;;;;;;11.50;5.65;;;16.60;99.90;;;;;;4991664;28;20053;-86
2022/09/07 02:34:37;;;;;;;7.97;5.22;;;16.60;99.90;;;;;;4995090;28;20057;-87
2022/09/07 02:37:07;;;;;;;10.68;4.88;;;16.70;99.90;;;;;;4996623;28;20042;-87
2022/09/07 02:39:33;;;;;;;11.70;4.60;;;16.70;99.90;;;;;;4992484;28;20053;-86
2022/09/07 02:41:59;;;;;;;9.50;4.45;;;16.80;99.90;;;;;;4992209;28;20030;-86
2022/09/07 02:44:33;;;;;;;15.18;5.05;;;16.80;99.90;;;;;;4991914;28;20129;-86
2022/09/07 02:47:23;;;;;;;9.27;4.80;;;16.80;99.90;;;;;;4992273;28;20045;-87
2022/09/07 02:54:02;;;;;;;16.05;4.65;;;16.70;99.90;;;;;;4987680;28;20045;-87
2022/09/07 02:56:49;;;;;;;10.25;4.82;;;16.50;99.90;;;;;;4975217;28;20031;-86
2022/09/07 02:59:36;;;;;;;14.73;5.65;;;16.40;99.90;;;;;;4991453;28;20031;-86
2022/09/07 03:02:49;;;;;;;13.05;5.10;;;16.30;99.90;;;;;;4993554;28;20037;-86
2022/09/07 03:05:23;;;;;;;10.35;5.38;;;16.10;99.90;;;;;;4974274;28;20034;-86
2022/09/07 03:08:00;;;;;;;8.02;5.35;;;16.00;99.90;;;;;;4991971;28;20027;-86
2022/09/07 03:10:27;;;;;;;14.95;5.55;;;15.90;99.90;;;;;;4992193;28;20486;-87
2022/09/07 03:12:53;;;;;;;10.05;5.88;;;15.90;99.90;;;;;;5001862;28;20050;-86
2022/09/07 03:15:23;;;;;;;12.82;6.10;;;15.80;99.90;;;;;;4991850;28;20121;-86
2022/09/07 03:17:49;;;;;;;10.98;5.65;;;15.80;99.90;;;;;;4992048;28;20477;-86
2022/09/07 03:20:16;;;;;;;12.98;6.60;;;15.80;99.90;;;;;;4992194;28;20030;-87
2022/09/07 03:22:42;;;;;;;19.27;6.47;;;15.80;99.90;;;;;;4991617;28;20100;-87
2022/09/07 03:25:09;;;;;;;10.90;6.43;;;15.80;99.90;;;;;;4991924;28;20038;-87
2022/09/07 03:27:35;;;;;;;11.68;6.32;;;15.70;99.90;;;;;;4993932;28;20034;-86
2022/09/07 03:30:02;;;;;;;12.55;6.70;;;15.70;99.90;;;;;;5001583;28;20037;-86
2022/09/07 03:32:33;;;;;;;11.07;6.38;;;15.70;99.90;;;;;;4995148;28;20509;-86
2022/09/07 03:35:00;;;;;;;15.27;6.82;;;15.70;99.90;;;;;;4997633;28;20426;-86
2022/09/07 03:37:26;;;;;;;17.50;7.13;;;15.70;99.90;;;;;;4995418;28;20034;-86
2022/09/07 03:39:52;;;;;;;14.45;7.22;;;15.70;99.90;;;;;;4992810;28;20045;-86
2022/09/07 03:42:19;;;;;;;11.07;6.68;;;15.70;99.90;;;;;;4995001;28;20510;-86
2022/09/07 03:44:44;;;;;;;11.57;7.40;;;15.70;99.90;;;;;;4994690;28;20026;-86
2022/09/07 03:47:11;;;;;;;14.25;7.22;;;15.70;99.90;;;;;;4995046;28;20028;-87
2022/09/07 03:49:36;;;;;;;14.88;8.73;;;15.70;99.90;;;;;;4979013;28;20058;-87
2022/09/07 03:52:03;;;;;;;11.40;7.68;;;15.70;99.90;;;;;;4995125;28;20504;-86
2022/09/07 03:54:29;;;;;;;12.98;8.88;;;15.70;99.90;;;;;;4977682;28;20471;-86
2022/09/07 03:56:55;;;;;;;15.05;8.48;;;15.70;99.90;;;;;;4994608;28;20037;-87
2022/09/07 03:59:21;;;;;;;15.77;9.32;;;15.70;99.90;;;;;;4994574;28;20034;-87
2022/09/07 04:01:47;;;;;;;14.05;8.80;;;15.60;99.90;;;;;;4978399;28;20038;-87
2022/09/07 04:04:12;;;;;;;13.50;9.05;;;15.60;99.90;;;;;;4988764;28;20097;-87
2022/09/07 04:06:38;;;;;;;16.55;8.73;;;15.60;99.90;;;;;;4994322;28;20045;-86
2022/09/07 04:09:07;;;;;;;20.63;9.60;;;15.60;99.90;;;;;;5011244;28;20022;-86
2022/09/07 04:11:33;;;;;;;15.82;8.35;;;15.60;99.90;;;;;;4994759;28;20523;-86
2022/09/07 04:13:58;;;;;;;15.48;8.70;;;15.50;99.90;;;;;;4994531;28;20031;-87
2022/09/07 04:16:25;;;;;;;19.42;9.35;;;15.50;99.90;;;;;;4994606;28;20038;-87
2022/09/07 04:18:54;;;;;;;11.63;8.45;;;15.50;99.90;;;;;;4994528;28;20034;-87
2022/09/07 04:21:25;;;;;;;14.45;8.40;;;15.50;99.90;;;;;;4991876;28;20030;-87
2022/09/07 04:23:52;;;;;;;20.80;9.00;;;15.40;99.90;;;;;;4993540;28;20030;-87
2022/09/07 04:26:19;;;;;;;19.55;10.07;;;15.30;99.90;;;;;;4991817;28;20508;-87
2022/09/07 04:28:45;;;;;;;17.98;10.13;;;15.30;99.90;;;;;;4994745;28;20030;-87
2022/09/07 04:31:13;;;;;;;19.23;9.55;;;15.30;99.90;;;;;;4995060;28;20031;-87
2022/09/07 04:33:38;;;;;;;27.95;11.57;;;15.30;99.90;;;;;;4993149;28;20485;-87
2022/09/07 04:36:04;;;;;;;16.33;9.50;;;15.40;99.90;;;;;;4994298;28;20023;-87
2022/09/07 04:38:30;;;;;;;13.10;8.70;;;15.40;99.90;;;;;;4993955;28;20053;-87
2022/09/07 04:41:07;;;;;;;12.73;9.10;;;15.40;99.90;;;;;;4993928;28;20033;-86
2022/09/07 04:44:16;;;;;;;15.65;8.73;;;15.30;99.90;;;;;;4993853;28;20073;-87
2022/09/07 04:46:42;;;;;;;18.02;9.07;;;15.30;99.90;;;;;;4993807;28;20034;-87
2022/09/07 04:49:10;;;;;;;15.30;9.00;;;15.30;99.90;;;;;;4993971;28;20033;-87
2022/09/07 04:51:37;;;;;;;30.58;11.45;;;15.30;99.90;;;;;;4993195;28;20034;-86
2022/09/07 04:54:04;;;;;;;19.35;10.25;;;15.30;99.90;;;;;;4993601;28;20034;-87
2022/09/07 04:56:31;;;;;;;19.35;10.82;;;15.40;99.90;;;;;;4990265;28;20027;-86
2022/09/07 04:58:59;;;;;;;22.27;10.60;;;15.40;99.90;;;;;;4992554;28;20481;-87
2022/09/07 05:01:59;;;;;;;22.90;12.60;;;15.40;99.90;;;;;;4987375;28;20041;-87
2022/09/07 05:04:24;;;;;;;20.65;11.35;;;15.40;99.90;;;;;;5005297;28;20129;-87
2022/09/07 05:06:52;;;;;;;20.77;11.82;;;15.40;99.90;;;;;;4993974;28;20062;-86
2022/09/07 05:09:18;;;;;;;20.42;11.63;;;15.40;99.90;;;;;;4977112;28;20026;-86
2022/09/07 05:11:44;;;;;;;22.02;12.32;;;15.40;99.90;;;;;;4992955;28;20077;-87
2022/09/07 05:14:40;;;;;;;15.23;11.73;;;15.40;99.90;;;;;;4976671;28;20031;-87
2022/09/07 05:17:06;;;;;;;15.95;10.65;;;15.30;99.90;;;;;;4992253;28;20030;-87
2022/09/07 05:19:32;;;;;;;19.23;11.70;;;15.40;99.90;;;;;;4975985;28;20041;-87
2022/09/07 05:21:58;;;;;;;31.55;14.38;;;15.30;99.90;;;;;;5008684;28;20038;-86
2022/09/07 05:24:25;;;;;;;23.50;13.55;;;15.30;99.90;;;;;;4986090;28;20446;-86
2022/09/07 05:26:52;;;;;;;20.77;13.48;;;15.30;99.90;;;;;;4993199;28;20069;-87
2022/09/07 05:29:18;;;;;;;25.27;13.20;;;15.30;99.90;;;;;;5006172;28;20534;-87
2022/09/07 05:31:45;;;;;;;20.45;11.60;;;15.20;99.90;;;;;;4990364;28;20041;-87
2022/09/07 05:34:10;;;;;;;24.15;13.48;;;15.20;99.90;;;;;;4982155;28;20030;-87
2022/09/07 05:36:37;;;;;;;20.70;13.02;;;15.10;99.90;;;;;;4992769;28;20038;-87
2022/09/07 05:39:04;;;;;;;21.77;11.88;;;15.10;99.90;;;;;;4992623;28;20045;-87
2022/09/07 05:41:30;;;;;;;22.73;13.25;;;15.10;99.90;;;;;;4992715;28;20038;-87
2022/09/07 05:43:56;;;;;;;20.25;14.10;;;15.20;99.90;;;;;;4992467;28;20121;-87
2022/09/07 05:46:22;;;;;;;27.25;14.13;;;15.20;99.90;;;;;;4976306;28;20905;-86
2022/09/07 05:48:48;;;;;;;27.67;13.85;;;15.20;99.90;;;;;;4989819;28;20026;-87
2022/09/07 05:51:15;;;;;;;24.90;13.20;;;15.10;99.90;;;;;;4989639;28;20794;-87
2022/09/07 05:53:46;;;;;;;20.65;11.98;;;15.10;99.90;;;;;;5000941;28;20034;-87
2022/09/07 05:56:12;;;;;;;19.35;12.32;;;15.10;99.90;;;;;;4992222;28;20241;-87
2022/09/07 05:58:38;;;;;;;29.63;16.25;;;15.10;99.90;;;;;;4969501;28;20133;-87
2022/09/07 06:01:07;;;;;;;20.63;13.73;;;15.20;99.90;;;;;;5002521;28;20386;-86
2022/09/07 06:03:35;;;;;;;22.20;15.85;;;15.20;99.90;;;;;;4974071;28;20031;-87
2022/09/07 06:06:08;;;;;;;19.83;12.63;;;15.20;99.90;;;;;;4992275;28;20030;-86
2022/09/07 06:08:37;;;;;;;20.20;13.43;;;15.30;99.90;;;;;;4986613;28;20019;-86
2022/09/07 06:11:11;;;;;;;27.80;15.77;;;15.30;99.90;;;;;;4991605;28;20034;-86
2022/09/07 06:13:38;;;;;;;19.40;12.20;;;15.40;99.90;;;;;;4995775;28;20022;-86
2022/09/07 06:16:06;;;;;;;21.73;14.32;;;15.50;99.90;;;;;;4986156;28;20045;-87
2022/09/07 06:18:34;;;;;;;22.45;13.45;;;15.60;99.90;;;;;;4981215;28;20085;-87
2022/09/07 06:21:05;;;;;;;20.75;11.52;;;15.70;99.90;;;;;;4975159;28;20030;-86
2022/09/07 06:23:32;;;;;;;23.15;11.50;;;15.80;99.90;;;;;;4992818;28;20093;-87
2022/09/07 06:25:58;;;;;;;18.25;11.52;;;15.90;99.90;;;;;;4990862;28;20030;-87
2022/09/07 06:28:33;;;;;;;18.90;12.13;;;15.90;99.90;;;;;;4990642;28;20027;-87
2022/09/07 06:31:03;;;;;;;18.73;10.07;;;16.00;99.90;;;;;;4985454;28;20034;-86
2022/09/07 06:33:29;;;;;;;15.45;11.13;;;16.10;99.90;;;;;;4983335;28;20031;-86
2022/09/07 06:36:03;;;;;;;12.80;8.82;;;16.20;99.90;;;;;;4990540;28;20025;-86
2022/09/07 06:38:36;;;;;;;16.42;9.68;;;16.30;99.90;;;;;;4984519;28;20524;-86
2022/09/07 06:41:09;;;;;;;18.70;9.20;;;16.30;99.90;;;;;;4987821;28;20034;-85
2022/09/07 06:43:35;;;;;;;16.85;8.38;;;16.40;99.90;;;;;;4990989;28;20038;-85
2022/09/07 06:46:01;;;;;;;17.83;6.95;;;16.50;99.90;;;;;;4994561;28;20069;-86
2022/09/07 06:48:28;;;;;;;14.38;7.72;;;16.60;99.90;;;;;;4991002;28;20115;-86
2022/09/07 06:51:00;;;;;;;20.95;11.98;;;16.70;99.90;;;;;;4976899;28;20057;-85
2022/09/07 06:53:30;;;;;;;16.40;6.70;;;16.70;99.90;;;;;;4988790;28;20433;-85
2022/09/07 06:55:56;;;;;;;13.68;7.18;;;16.80;99.90;;;;;;4969371;28;20018;-85
2022/09/07 06:58:25;;;;;;;17.30;6.88;;;16.90;99.90;;;;;;4989014;28;20469;-85
2022/09/07 07:00:52;;;;;;;14.82;5.70;;;17.00;99.90;;;;;;4993537;28;20049;-86
2022/09/07 07:03:18;;;;;;;10.35;6.00;;;17.10;99.90;;;;;;4994354;28;20034;-86
2022/09/07 07:05:55;;;;;;;13.68;5.63;;;17.20;99.90;;;;;;5000783;28;20038;-86
2022/09/07 07:08:23;;;;;;;12.02;5.82;;;17.40;99.90;;;;;;4975120;28;20453;-86
2022/09/07 07:10:50;;;;;;;11.60;6.45;;;17.50;99.90;;;;;;4993365;28;20540;-86
2022/09/07 07:13:16;;;;;;;11.30;6.28;;;17.60;99.90;;;;;;4988216;28;20030;-86
2022/09/07 07:15:43;;;;;;;9.65;6.45;;;17.50;99.90;;;;;;4992162;28;20588;-86
2022/09/07 07:18:10;;;;;;;18.60;6.60;;;17.50;99.90;;;;;;4974972;28;20030;-86
2022/09/07 07:20:37;;;;;;;9.07;6.00;;;17.60;99.90;;;;;;4990656;28;20033;-86
2022/09/07 07:23:04;;;;;;;10.02;4.97;;;17.60;99.90;;;;;;4995948;28;20120;-86
2022/09/07 07:25:29;;;;;;;18.38;6.43;;;17.70;99.90;;;;;;5001307;28;20053;-86
2022/09/07 07:27:56;;;;;;;11.57;5.00;;;17.70;99.90;;;;;;4997706;28;20437;-87
2022/09/07 07:30:21;;;;;;;13.65;5.35;;;17.80;99.90;;;;;;4994684;28;20026;-86
2022/09/07 07:32:47;;;;;;;12.73;5.72;;;17.80;99.90;;;;;;4996742;28;20054;-86
2022/09/07 07:35:14;;;;;;;9.57;5.22;;;17.90;99.90;;;;;;4994657;28;20109;-86
2022/09/07 07:37:39;;;;;;;7.18;4.60;;;17.90;99.90;;;;;;4994802;28;20038;-86
2022/09/07 07:40:09;;;;;;;11.40;5.07;;;18.00;99.90;;;;;;4996201;28;20022;-86
2022/09/07 07:42:37;;;;;;;15.10;4.40;;;18.10;99.90;;;;;;4994560;28;20058;-85
2022/09/07 07:45:03;;;;;;;17.67;5.53;;;18.10;99.90;;;;;;4995021;28;20042;-86
2022/09/07 07:47:29;;;;;;;15.68;6.10;;;18.10;99.90;;;;;;4991216;28;20496;-86
2022/09/07 07:50:32;;;;;;;10.30;4.85;;;18.20;99.90;;;;;;4994705;28;20118;-86
2022/09/07 07:52:58;;;;;;;14.93;4.35;;;18.20;99.90;;;;;;4991362;28;20042;-86
2022/09/07 07:55:24;;;;;;;10.10;4.40;;;18.20;99.90;;;;;;4997275;28;20485;-85
2022/09/07 07:57:50;;;;;;;13.60;4.80;;;18.20;99.90;;;;;;4997526;28;20030;-86
2022/09/07 08:00:16;;;;;;;8.35;3.65;;;18.30;99.90;;;;;;4994313;28;20080;-86
2022/09/07 08:02:41;;;;;;;11.25;4.57;;;18.40;99.90;;;;;;4990513;28;20041;-85
2022/09/07 08:05:07;;;;;;;9.18;3.63;;;18.40;99.90;;;;;;4979108;28;20417;-87
2022/09/07 08:07:33;;;;;;;7.28;3.65;;;18.60;99.90;;;;;;4994101;28;20085;-86
2022/09/07 08:09:59;;;;;;;15.70;4.10;;;18.70;99.90;;;;;;5004669;28;20026;-85
2022/09/07 08:12:25;;;;;;;15.18;4.82;;;18.80;99.90;;;;;;4993273;28;20062;-86
2022/09/07 08:14:52;;;;;;;8.60;4.25;;;18.80;99.90;;;;;;4993481;28;20034;-86
2022/09/07 08:17:18;;;;;;;11.90;3.80;;;18.90;99.90;;;;;;4993045;28;20053;-85
2022/09/07 08:23:31;;;;;;;13.38;4.90;;;19.10;99.90;;;;;;4992271;28;20113;-87
2022/09/07 08:25:59;;;;;;;12.07;4.50;;;19.30;99.90;;;;;;4992438;28;20030;-86
2022/09/07 08:28:27;;;;;;;9.63;3.85;;;19.30;99.90;;;;;;4995709;28;20053;-86
2022/09/07 08:30:54;;;;;;;10.77;4.00;;;19.40;99.90;;;;;;4994040;28;20116;-86
2022/09/07 08:33:20;;;;;;;6.60;3.97;;;19.50;99.90;;;;;;4994552;28;20034;-87
2022/09/07 08:36:03;;;;;;;8.30;3.50;;;19.60;99.90;;;;;;4997808;28;20038;-86
2022/09/07 08:38:31;;;;;;;11.30;3.85;;;19.70;99.90;;;;;;4989064;28;20085;-87
2022/09/07 08:40:58;;;;;;;18.23;4.68;;;19.80;99.90;;;;;;4994043;28;20052;-87
2022/09/07 08:43:47;;;;;;;8.35;3.95;;;19.90;99.90;;;;;;4991074;28;20109;-87
2022/09/07 08:46:33;;;;;;;9.13;3.60;;;19.90;99.90;;;;;;4985377;28;20113;-86
2022/09/07 08:49:00;;;;;;;13.63;3.05;;;20.10;99.90;;;;;;4990416;28;20504;-86
2022/09/07 08:51:51;;;;;;;14.23;3.75;;;21.50;99.90;;;;;;4992437;28;20034;-86
2022/09/07 08:54:17;;;;;;;10.20;2.83;;;23.30;99.90;;;;;;5007329;28;20593;-87
2022/09/07 08:57:36;;;;;;;15.45;4.35;;;24.30;99.90;;;;;;4975048;28;20037;-87
2022/09/07 09:00:12;;;;;;;19.25;9.75;;;25.50;99.90;;;;;;4973833;28;20045;-87
2022/09/07 09:02:38;;;;;;;15.02;2.78;;;26.10;99.90;;;;;;4976795;28;20030;-86
2022/09/07 09:05:13;;;;;;;8.50;2.50;;;26.30;99.90;;;;;;4975293;28;20026;-87
2022/09/07 09:08:12;;;;;;;15.00;3.33;;;26.40;99.90;;;;;;4973189;28;20057;-87
2022/09/07 09:10:57;;;;;;;9.70;2.97;;;26.60;99.90;;;;;;4983460;28;20037;-87
2022/09/07 09:13:53;;;;;;;10.98;3.38;;;27.30;99.90;;;;;;4991864;28;20041;-87
2022/09/07 09:16:22;;;;;;;5.70;2.38;;;27.00;99.90;;;;;;4991049;28;20836;-87
2022/09/07 09:18:47;;;;;;;9.18;2.80;;;27.10;99.90;;;;;;4990603;28;20041;-87
2022/09/07 09:21:18;;;;;;;8.90;2.70;;;26.60;99.90;;;;;;4975749;28;20026;-87
2022/09/07 09:23:47;;;;;;;6.95;2.55;;;26.40;99.90;;;;;;4970756;28;20622;-86
2022/09/07 09:26:22;;;;;;;7.00;2.72;;;25.50;99.90;;;;;;4989795;28;20050;-87
2022/09/07 09:28:47;;;;;;;6.78;2.70;;;24.70;99.90;;;;;;4989619;28;20450;-87
2022/09/07 09:31:27;;;;;;;7.57;2.75;;;24.60;99.90;;;;;;4981946;28;20034;-87
2022/09/07 09:34:07;;;;;;;11.15;3.05;;;24.60;99.90;;;;;;4992300;28;20022;-87
2022/09/07 09:36:39;;;;;;;10.80;2.80;;;24.50;99.90;;;;;;4994451;28;20072;-87
2022/09/07 09:39:24;;;;;;;9.52;2.92;;;24.60;99.90;;;;;;4975358;28;20417;-87
2022/09/07 09:41:49;;;;;;;7.28;2.80;;;24.40;99.90;;;;;;4992039;28;20139;-86
2022/09/07 09:44:41;;;;;;;5.25;3.13;;;23.90;99.90;;;;;;4991945;28;20106;-87
2022/09/07 09:47:31;;;;;;;6.03;2.72;;;24.20;99.90;;;;;;4978099;28;20037;-87
2022/09/07 09:50:03;;;;;;;10.57;3.08;;;24.70;99.90;;;;;;4990951;28;20057;-87
2022/09/07 09:52:34;;;;;;;11.40;3.40;;;24.10;99.90;;;;;;4969701;28;20027;-87
2022/09/07 09:55:00;;;;;;;4.55;2.72;;;24.60;99.90;;;;;;4984761;28;20026;-87
2022/09/07 09:57:46;;;;;;;9.65;3.83;;;24.80;99.90;;;;;;4993813;28;20089;-87
2022/09/07 10:00:19;;;;;;;13.20;3.88;;;24.80;99.90;;;;;;4991966;28;20385;-87
2022/09/07 10:07:16;;;;;;;6.22;2.50;;;26.00;99.90;;;;;;4954272;28;20125;-87
2022/09/07 10:09:49;;;;;;;6.80;2.60;;;26.50;99.90;;;;;;4935032;28;20046;-87
2022/09/07 10:12:31;;;;;;;8.18;2.42;;;27.20;99.90;;;;;;4988091;28;20101;-87
2022/09/07 10:14:59;;;;;;;6.78;2.63;;;27.40;99.90;;;;;;4991209;28;20039;-87
2022/09/07 10:17:39;;;;;;;6.30;2.30;;;28.20;99.90;;;;;;4991766;28;20042;-87
2022/09/07 10:20:14;;;;;;;4.75;2.80;;;28.70;99.90;;;;;;5008317;28;20034;-87
2022/09/07 10:22:43;;;;;;;8.90;2.50;;;28.60;99.90;;;;;;4994558;28;20037;-88
2022/09/07 10:25:29;;;;;;;6.72;2.30;;;28.70;99.90;;;;;;4993442;28;20034;-87
2022/09/07 10:28:08;;;;;;;8.48;2.47;;;29.10;99.90;;;;;;4980066;28;20496;-87
2022/09/07 10:31:09;;;;;;;6.60;2.85;;;29.20;99.90;;;;;;4978592;28;20026;-87
2022/09/07 10:34:00;;;;;;;5.97;2.10;;;29.10;99.90;;;;;;4969190;28;20116;-87
2022/09/07 10:36:37;;;;;;;11.38;2.38;;;29.10;99.90;;;;;;4975232;28;20043;-87
2022/09/07 10:39:07;;;;;;;6.75;3.10;;;30.00;99.90;;;;;;4976751;28;20026;-87
2022/09/07 10:41:43;;;;;;;10.43;2.40;;;29.90;99.90;;;;;;4994772;28;20065;-86
2022/09/07 10:45:01;;;;;;;10.23;3.03;;;29.50;99.90;;;;;;4974348;28;20113;-87
2022/09/07 10:48:05;;;;;;;5.40;2.85;;;29.40;99.90;;;;;;4994566;28;20474;-88
2022/09/07 10:50:39;;;;;;;8.68;2.20;;;29.40;99.90;;;;;;4982544;28;20546;-87
2022/09/07 10:53:18;;;;;;;4.43;2.30;;;30.00;99.90;;;;;;4994607;28;20034;-87
2022/09/07 10:56:02;;;;;;;8.38;2.63;;;30.90;99.90;;;;;;4994736;28;20045;-87
2022/09/07 10:59:12;;;;;;;8.98;2.45;;;31.10;99.90;;;;;;4973731;28;20031;-87
2022/09/07 11:01:48;;;;;;;9.73;2.40;;;30.30;99.90;;;;;;4921658;29;20039;-87
2022/09/07 11:04:56;;;;;;;9.48;2.30;;;29.80;99.90;;;;;;4908423;29;20392;-87
2022/09/07 11:08:03;;;;;;;7.25;2.53;;;29.10;99.90;;;;;;4963177;28;20410;-87
2022/09/07 11:10:35;;;;;;;7.18;2.20;;;27.20;99.90;;;;;;4972982;28;20050;-87
2022/09/07 11:13:04;;;;;;;9.55;3.15;;;26.40;99.90;;;;;;4995538;28;20082;-87
2022/09/07 11:15:49;;;;;;;7.13;2.47;;;26.50;99.90;;;;;;4998001;28;20030;-87
2022/09/07 11:18:30;;;;;;;5.95;2.22;;;27.40;99.90;;;;;;4980310;28;20034;-87
2022/09/07 11:20:59;;;;;;;6.03;2.05;;;28.20;99.90;;;;;;4987915;28;20121;-88
2022/09/07 11:23:35;;;;;;;5.20;2.20;;;28.90;99.90;;;;;;4994345;28;20038;-87
2022/09/07 11:26:18;;;;;;;8.38;1.95;;;29.40;99.90;;;;;;4995150;28;20027;-88
2022/09/07 11:29:11;;;;;;;6.93;1.98;;;29.90;99.90;;;;;;4994550;28;20694;-88
2022/09/07 11:31:48;;;;;;;5.93;2.05;;;29.60;99.90;;;;;;4981900;28;20042;-87
2022/09/07 11:34:27;;;;;;;5.03;1.73;;;29.00;99.90;;;;;;4993319;28;20069;-87
2022/09/07 11:37:09;;;;;;;6.80;2.35;;;28.70;99.90;;;;;;4994385;28;20030;-87
2022/09/07 11:39:42;;;;;;;7.68;2.22;;;27.50;99.90;;;;;;4975517;28;20437;-87
2022/09/07 11:42:45;;;;;;;7.38;2.00;;;27.30;99.90;;;;;;4976864;28;20038;-87
2022/09/07 11:45:22;;;;;;;9.13;2.22;;;26.90;99.90;;;;;;4979661;28;20058;-86
2022/09/07 11:48:06;;;;;;;7.07;2.20;;;26.10;99.90;;;;;;5000839;28;20027;-86
2022/09/07 11:50:37;;;;;;;7.18;2.78;;;25.50;99.90;;;;;;4975769;28;20038;-85
2022/09/07 11:53:13;;;;;;;8.57;2.47;;;25.20;99.90;;;;;;4976779;28;20034;-86
2022/09/07 11:55:44;;;;;;;11.50;2.47;;;25.20;99.90;;;;;;4992342;28;20046;-87
2022/09/07 11:58:34;;;;;;;14.77;2.38;;;26.20;99.90;;;;;;4992690;28;20694;-87
2022/09/07 12:01:19;;;;;;;6.90;2.33;;;27.30;99.90;;;;;;4975844;28;20033;-86
2022/09/07 12:04:04;;;;;;;7.57;1.80;;;27.70;99.90;;;;;;4972875;28;20062;-87
2022/09/07 12:06:52;;;;;;;4.50;1.80;;;28.00;99.90;;;;;;4974094;28;20052;-87
2022/09/07 12:09:44;;;;;;;3.75;2.10;;;27.60;99.90;;;;;;4993426;28;20031;-87
2022/09/07 12:12:16;;;;;;;6.82;2.38;;;27.10;99.90;;;;;;5008984;28;20430;-86
2022/09/07 12:15:16;;;;;;;6.78;2.25;;;27.10;99.90;;;;;;4976519;28;20181;-87
2022/09/07 12:18:00;;;;;;;8.10;2.10;;;26.70;99.90;;;;;;4992768;28;20598;-87
2022/09/07 12:24:38;;;;;;;6.97;2.20;;;27.50;99.90;;;;;;4979034;28;20066;-87
2022/09/07 12:27:19;;;;;;;8.02;2.25;;;27.60;99.90;;;;;;4972651;28;20034;-87
2022/09/07 12:29:49;;;;;;;;;;;27.10;99.90;;;;;;4990242;28;20525;-87
2022/09/07 12:32:45;;;;;;;6.93;2.00;;;26.90;99.90;;;;;;4969549;28;19910;-87
2022/09/07 12:35:27;;;;;;;4.82;1.98;;;27.50;99.90;;;;;;4994309;28;20027;-87
2022/09/07 12:37:54;;;;;;;3.28;1.77;;;27.20;99.90;;;;;;4983655;28;20037;-87
2022/09/07 12:40:32;;;;;;;3.88;1.92;;;26.60;99.90;;;;;;4979734;28;20117;-87
2022/09/07 12:43:51;;;;;;;4.97;2.05;;;26.80;99.90;;;;;;4998373;28;20092;-87
2022/09/07 12:46:42;;;;;;;3.47;1.83;;;26.70;99.90;;;;;;4971921;28;20030;-85
2022/09/07 12:49:17;;;;;;;4.72;2.05;;;26.60;99.90;;;;;;4990489;28;20042;-88
2022/09/07 12:51:56;;;;;;;4.93;1.90;;;26.60;99.30;;;;;;4964206;28;20038;-86
2022/09/07 12:55:18;;;;;;;4.88;1.80;;;26.70;99.50;;;;;;4974395;28;20453;-87
2022/09/07 12:58:01;;;;;;;4.00;1.80;;;26.90;99.10;;;;;;4961983;28;20026;-87
2022/09/07 13:00:42;;;;;;;7.35;1.83;;;26.90;98.10;;;;;;4980465;28;20087;-87
2022/09/07 13:03:35;;;;;;;2.90;1.40;;;27.00;99.20;;;;;;4978884;28;20509;-87
2022/09/07 13:06:16;;;;;;;4.63;1.90;;;27.50;97.80;;;;;;4979586;28;20028;-87
2022/09/07 13:08:50;;;;;;;1.77;1.27;;;27.90;97.40;;;;;;4973766;28;20027;-87
2022/09/07 13:11:18;;;;;;;3.22;1.80;;;27.90;96.70;;;;;;4987316;28;20036;-87
2022/09/07 13:13:57;;;;;;;4.30;1.70;;;28.00;95.60;;;;;;4961974;28;20030;-87
2022/09/07 13:16:27;;;;;;;2.90;1.50;;;28.10;95.20;;;;;;4989901;28;20041;-87
2022/09/07 13:18:52;;;;;;;3.30;1.40;;;27.90;96.30;;;;;;4989348;28;20438;-87
2022/09/07 13:21:36;;;;;;;4.60;1.55;;;27.90;94.90;;;;;;4977965;28;20026;-87
2022/09/07 13:24:17;;;;;;;3.50;1.55;;;27.90;93.40;;;;;;4979152;28;20058;-87
2022/09/07 13:26:50;;;;;;;4.25;1.50;;;28.10;93.00;;;;;;4979190;28;20115;-86
2022/09/07 13:29:21;;;;;;;3.28;1.42;;;27.60;94.50;;;;;;4995132;28;20089;-86
2022/09/07 13:32:16;;;;;;;2.97;1.50;;;27.10;94.30;;;;;;4999614;28;20626;-87
2022/09/07 13:34:48;;;;;;;6.85;1.90;;;26.70;95.90;;;;;;4989570;28;20055;-86